Glenariff, United Kingdom
Current Conditions -  °F | °C
As of 9:50 PM on Monday 22 Dec 2014 (Local Time) from EGAA Reporting Station
Broken Clouds Broken Clouds  
Wind Chill:   Ceiling: 1100
Heat Index:   Visibility: 6mi
Dew Point:   Wind: 8mph
Humidity: 100%   Direction: 220°SW
Pressure: 29.74"   Gusts: NA
Location:  55.05°N, 6.07°W
Report Text: EGAA 222150Z 22007KT 9999 SCT007 BKN011 09/09 Q1007
Loading
Personal Weather Stations






























Interactive Weather Map New forecast layout! Learn more

10-Day Weather Forecast

Advertisements
Track Severe Weather on mobile